sensor_id;sensor_type;location;lat;lon;timestamp;temperature;humidity
3628;DHT22;1830;49.000;12.074;2022-11-18T00:00:26;6.70;99.90
3628;DHT22;1830;49.000;12.074;2022-11-18T00:02:53;6.70;99.90
3628;DHT22;1830;49.000;12.074;2022-11-18T00:05:20;6.70;99.90
3628;DHT22;1830;49.000;12.074;2022-11-18T00:07:47;6.80;99.90
3628;DHT22;1830;49.000;12.074;2022-11-18T00:10:15;6.70;99.90
3628;DHT22;1830;49.000;12.074;2022-11-18T00:12:42;6.70;99.90
3628;DHT22;1830;49.000;12.074;2022-11-18T00:15:28;6.70;99.90
3628;DHT22;1830;49.000;12.074;2022-11-18T00:17:54;6.70;99.90
3628;DHT22;1830;49.000;12.074;2022-11-18T00:20:21;6.70;99.90
3628;DHT22;1830;49.000;12.074;2022-11-18T00:22:48;6.70;99.90
3628;DHT22;1830;49.000;12.074;2022-11-18T00:25:15;6.80;99.90
3628;DHT22;1830;49.000;12.074;2022-11-18T00:27:42;6.80;99.90
3628;DHT22;1830;49.000;12.074;2022-11-18T00:30:10;6.80;99.90
3628;DHT22;1830;49.000;12.074;2022-11-18T00:32:38;6.80;99.90
3628;DHT22;1830;49.000;12.074;2022-11-18T00:35:06;6.70;99.90
3628;DHT22;1830;49.000;12.074;2022-11-18T00:37:33;6.70;99.90
3628;DHT22;1830;49.000;12.074;2022-11-18T00:39:59;6.70;99.90
3628;DHT22;1830;49.000;12.074;2022-11-18T00:42:26;6.70;99.90
3628;DHT22;1830;49.000;12.074;2022-11-18T00:45:11;6.70;99.90
3628;DHT22;1830;49.000;12.074;2022-11-18T00:47:39;6.60;99.90
3628;DHT22;1830;49.000;12.074;2022-11-18T00:50:06;6.50;99.90
3628;DHT22;1830;49.000;12.074;2022-11-18T00:52:33;6.60;99.90
3628;DHT22;1830;49.000;12.074;2022-11-18T00:55:00;6.60;99.90
3628;DHT22;1830;49.000;12.074;2022-11-18T00:57:27;6.60;99.90
3628;DHT22;1830;49.000;12.074;2022-11-18T00:59:54;6.60;99.90
3628;DHT22;1830;49.000;12.074;2022-11-18T01:02:21;6.60;99.90
3628;DHT22;1830;49.000;12.074;2022-11-18T01:04:49;6.60;99.90
3628;DHT22;1830;49.000;12.074;2022-11-18T01:07:16;6.60;99.90
3628;DHT22;1830;49.000;12.074;2022-11-18T01:09:43;6.60;99.90
3628;DHT22;1830;49.000;12.074;2022-11-18T01:12:10;6.70;99.90
3628;DHT22;1830;49.000;12.074;2022-11-18T01:14:54;6.80;99.90
3628;DHT22;1830;49.000;12.074;2022-11-18T01:17:21;6.80;99.90
3628;DHT22;1830;49.000;12.074;2022-11-18T01:19:49;6.70;99.90
3628;DHT22;1830;49.000;12.074;2022-11-18T01:22:16;6.80;99.90
3628;DHT22;1830;49.000;12.074;2022-11-18T01:24:43;6.60;99.90
3628;DHT22;1830;49.000;12.074;2022-11-18T01:27:10;6.60;99.90
3628;DHT22;1830;49.000;12.074;2022-11-18T01:29:37;6.60;99.90
3628;DHT22;1830;49.000;12.074;2022-11-18T01:32:04;6.60;99.90
3628;DHT22;1830;49.000;12.074;2022-11-18T01:34:31;6.60;99.90
3628;DHT22;1830;49.000;12.074;2022-11-18T01:36:59;6.60;99.90
3628;DHT22;1830;49.000;12.074;2022-11-18T01:39:26;6.50;99.90
3628;DHT22;1830;49.000;12.074;2022-11-18T01:41:53;6.60;99.90
3628;DHT22;1830;49.000;12.074;2022-11-18T01:44:59;6.60;99.90
3628;DHT22;1830;49.000;12.074;2022-11-18T01:47:30;6.60;99.90
3628;DHT22;1830;49.000;12.074;2022-11-18T01:49:58;6.60;99.90
3628;DHT22;1830;49.000;12.074;2022-11-18T01:52:27;6.60;99.90
3628;DHT22;1830;49.000;12.074;2022-11-18T01:54:57;6.50;99.90
3628;DHT22;1830;49.000;12.074;2022-11-18T01:57:26;6.50;99.90
3628;DHT22;1830;49.000;12.074;2022-11-18T01:59:57;6.50;99.90
3628;DHT22;1830;49.000;12.074;2022-11-18T02:02:26;6.60;99.90
3628;DHT22;1830;49.000;12.074;2022-11-18T02:04:53;6.60;99.90
3628;DHT22;1830;49.000;12.074;2022-11-18T02:07:21;6.60;99.90
3628;DHT22;1830;49.000;12.074;2022-11-18T02:09:50;6.60;99.90
3628;DHT22;1830;49.000;12.074;2022-11-18T02:12:18;6.60;99.90
3628;DHT22;1830;49.000;12.074;2022-11-18T02:14:46;6.50;99.90
3628;DHT22;1830;49.000;12.074;2022-11-18T02:17:21;6.40;99.90
3628;DHT22;1830;49.000;12.074;2022-11-18T02:20:11;6.40;99.90
3628;DHT22;1830;49.000;12.074;2022-11-18T02:26:13;6.50;99.90
3628;DHT22;1830;49.000;12.074;2022-11-18T02:28:59;6.50;99.90
3628;DHT22;1830;49.000;12.074;2022-11-18T02:31:31;6.60;99.90
3628;DHT22;1830;49.000;12.074;2022-11-18T02:34:05;6.60;99.90
3628;DHT22;1830;49.000;12.074;2022-11-18T02:36:39;6.70;99.90
3628;DHT22;1830;49.000;12.074;2022-11-18T02:39:11;6.80;99.90
3628;DHT22;1830;49.000;12.074;2022-11-18T02:41:41;6.70;99.90
3628;DHT22;1830;49.000;12.074;2022-11-18T02:44:12;6.80;99.90
3628;DHT22;1830;49.000;12.074;2022-11-18T02:46:40;6.80;99.90
3628;DHT22;1830;49.000;12.074;2022-11-18T02:49:19;6.80;99.90
3628;DHT22;1830;49.000;12.074;2022-11-18T02:51:47;6.70;99.90
3628;DHT22;1830;49.000;12.074;2022-11-18T02:54:16;6.80;99.90
3628;DHT22;1830;49.000;12.074;2022-11-18T02:56:45;6.90;99.90
3628;DHT22;1830;49.000;12.074;2022-11-18T02:59:18;6.90;99.90
3628;DHT22;1830;49.000;12.074;2022-11-18T03:01:45;6.90;99.90
3628;DHT22;1830;49.000;12.074;2022-11-18T03:04:13;6.90;99.90
3628;DHT22;1830;49.000;12.074;2022-11-18T03:06:48;6.90;99.90
3628;DHT22;1830;49.000;12.074;2022-11-18T03:09:20;6.90;99.90
3628;DHT22;1830;49.000;12.074;2022-11-18T03:11:55;6.90;99.90
3628;DHT22;1830;49.000;12.074;2022-11-18T03:14:30;7.00;99.90
3628;DHT22;1830;49.000;12.074;2022-11-18T03:17:00;6.90;99.90
3628;DHT22;1830;49.000;12.074;2022-11-18T03:19:44;6.90;99.90
3628;DHT22;1830;49.000;12.074;2022-11-18T03:22:18;6.90;99.90
3628;DHT22;1830;49.000;12.074;2022-11-18T03:24:53;6.80;99.90
3628;DHT22;1830;49.000;12.074;2022-11-18T03:27:24;6.90;99.90
3628;DHT22;1830;49.000;12.074;2022-11-18T03:29:58;6.90;99.90
3628;DHT22;1830;49.000;12.074;2022-11-18T03:32:28;6.90;99.90
3628;DHT22;1830;49.000;12.074;2022-11-18T03:35:00;6.90;99.90
3628;DHT22;1830;49.000;12.074;2022-11-18T03:37:28;6.90;99.90
3628;DHT22;1830;49.000;12.074;2022-11-18T03:39:59;6.90;99.90
3628;DHT22;1830;49.000;12.074;2022-11-18T03:42:31;6.90;99.90
3628;DHT22;1830;49.000;12.074;2022-11-18T03:45:05;6.90;99.90
3628;DHT22;1830;49.000;12.074;2022-11-18T03:47:38;6.90;99.90
3628;DHT22;1830;49.000;12.074;2022-11-18T03:50:12;6.90;99.90
3628;DHT22;1830;49.000;12.074;2022-11-18T03:52:41;6.90;99.90
3628;DHT22;1830;49.000;12.074;2022-11-18T03:55:12;6.90;99.90
3628;DHT22;1830;49.000;12.074;2022-11-18T03:57:45;6.90;99.90
3628;DHT22;1830;49.000;12.074;2022-11-18T04:00:16;6.90;99.90
3628;DHT22;1830;49.000;12.074;2022-11-18T04:02:46;6.90;99.90
3628;DHT22;1830;49.000;12.074;2022-11-18T04:05:15;6.80;99.90
3628;DHT22;1830;49.000;12.074;2022-11-18T04:07:50;6.90;99.90
3628;DHT22;1830;49.000;12.074;2022-11-18T04:10:20;6.80;99.90
3628;DHT22;1830;49.000;12.074;2022-11-18T04:12:50;6.80;99.90
3628;DHT22;1830;49.000;12.074;2022-11-18T04:15:21;6.90;99.90
3628;DHT22;1830;49.000;12.074;2022-11-18T04:17:48;6.90;99.90
3628;DHT22;1830;49.000;12.074;2022-11-18T04:20:17;6.90;99.90
3628;DHT22;1830;49.000;12.074;2022-11-18T04:22:44;6.90;99.90
3628;DHT22;1830;49.000;12.074;2022-11-18T04:25:11;6.80;99.90
3628;DHT22;1830;49.000;12.074;2022-11-18T04:27:38;6.80;99.90
3628;DHT22;1830;49.000;12.074;2022-11-18T04:30:06;6.80;99.90
3628;DHT22;1830;49.000;12.074;2022-11-18T04:32:35;6.80;99.90
3628;DHT22;1830;49.000;12.074;2022-11-18T04:35:02;6.90;99.90
3628;DHT22;1830;49.000;12.074;2022-11-18T04:37:29;6.80;99.90
3628;DHT22;1830;49.000;12.074;2022-11-18T04:39:56;6.80;99.90
3628;DHT22;1830;49.000;12.074;2022-11-18T04:42:24;6.90;99.90
3628;DHT22;1830;49.000;12.074;2022-11-18T04:44:50;6.90;99.90
3628;DHT22;1830;49.000;12.074;2022-11-18T04:47:17;6.90;99.90
3628;DHT22;1830;49.000;12.074;2022-11-18T04:49:45;6.90;99.90
3628;DHT22;1830;49.000;12.074;2022-11-18T04:52:13;6.90;99.90
3628;DHT22;1830;49.000;12.074;2022-11-18T04:54:40;6.90;99.90
3628;DHT22;1830;49.000;12.074;2022-11-18T04:57:08;6.80;99.90
3628;DHT22;1830;49.000;12.074;2022-11-18T04:59:35;6.80;99.90
3628;DHT22;1830;49.000;12.074;2022-11-18T05:02:09;6.80;99.90
3628;DHT22;1830;49.000;12.074;2022-11-18T05:04:36;6.90;99.90
3628;DHT22;1830;49.000;12.074;2022-11-18T05:07:05;6.90;99.90
3628;DHT22;1830;49.000;12.074;2022-11-18T05:09:32;6.90;99.90
3628;DHT22;1830;49.000;12.074;2022-11-18T05:11:59;6.90;99.90
3628;DHT22;1830;49.000;12.074;2022-11-18T05:14:43;6.90;99.90
3628;DHT22;1830;49.000;12.074;2022-11-18T05:17:10;6.90;99.90
3628;DHT22;1830;49.000;12.074;2022-11-18T05:19:37;6.90;99.90
3628;DHT22;1830;49.000;12.074;2022-11-18T05:22:06;6.90;99.90
3628;DHT22;1830;49.000;12.074;2022-11-18T05:24:34;6.90;99.90
3628;DHT22;1830;49.000;12.074;2022-11-18T05:27:01;6.90;99.90
3628;DHT22;1830;49.000;12.074;2022-11-18T05:29:28;6.90;99.90
3628;DHT22;1830;49.000;12.074;2022-11-18T05:31:55;6.80;99.90
3628;DHT22;1830;49.000;12.074;2022-11-18T05:34:22;6.80;99.90
3628;DHT22;1830;49.000;12.074;2022-11-18T05:36:49;6.80;99.90
3628;DHT22;1830;49.000;12.074;2022-11-18T05:39:17;6.90;99.90
3628;DHT22;1830;49.000;12.074;2022-11-18T05:41:44;6.90;99.90
3628;DHT22;1830;49.000;12.074;2022-11-18T05:44:28;6.90;99.90
3628;DHT22;1830;49.000;12.074;2022-11-18T05:46:55;6.90;99.90
3628;DHT22;1830;49.000;12.074;2022-11-18T05:49:22;6.90;99.90
3628;DHT22;1830;49.000;12.074;2022-11-18T05:51:49;6.90;99.90
3628;DHT22;1830;49.000;12.074;2022-11-18T05:54:18;6.90;99.90
3628;DHT22;1830;49.000;12.074;2022-11-18T05:56:47;6.90;99.90
3628;DHT22;1830;49.000;12.074;2022-11-18T05:59:14;6.90;99.90
3628;DHT22;1830;49.000;12.074;2022-11-18T06:01:44;6.90;99.90
3628;DHT22;1830;49.000;12.074;2022-11-18T06:04:15;6.90;99.90
3628;DHT22;1830;49.000;12.074;2022-11-18T06:06:45;6.90;99.90
3628;DHT22;1830;49.000;12.074;2022-11-18T06:09:13;6.90;99.90
3628;DHT22;1830;49.000;12.074;2022-11-18T06:11:47;7.10;99.90
3628;DHT22;1830;49.000;12.074;2022-11-18T06:14:18;7.10;99.90
3628;DHT22;1830;49.000;12.074;2022-11-18T06:16:49;7.00;99.90
3628;DHT22;1830;49.000;12.074;2022-11-18T06:19:17;7.00;99.90
3628;DHT22;1830;49.000;12.074;2022-11-18T06:21:44;7.10;99.90
3628;DHT22;1830;49.000;12.074;2022-11-18T06:24:12;7.10;99.90
3628;DHT22;1830;49.000;12.074;2022-11-18T06:26:39;7.10;99.90
3628;DHT22;1830;49.000;12.074;2022-11-18T06:29:10;7.10;99.90
3628;DHT22;1830;49.000;12.074;2022-11-18T06:31:37;7.00;99.90
3628;DHT22;1830;49.000;12.074;2022-11-18T06:34:04;7.00;99.90
3628;DHT22;1830;49.000;12.074;2022-11-18T06:36:31;7.00;99.90
3628;DHT22;1830;49.000;12.074;2022-11-18T06:39:02;6.90;99.90
3628;DHT22;1830;49.000;12.074;2022-11-18T06:41:29;6.90;99.90
3628;DHT22;1830;49.000;12.074;2022-11-18T06:43:55;7.00;99.90
3628;DHT22;1830;49.000;12.074;2022-11-18T06:46:23;7.00;99.90
3628;DHT22;1830;49.000;12.074;2022-11-18T06:49:07;7.00;99.90
3628;DHT22;1830;49.000;12.074;2022-11-18T06:51:33;7.00;99.90
3628;DHT22;1830;49.000;12.074;2022-11-18T06:54:00;7.00;99.90
3628;DHT22;1830;49.000;12.074;2022-11-18T06:56:27;7.00;99.90
3628;DHT22;1830;49.000;12.074;2022-11-18T06:58:55;7.10;99.90
3628;DHT22;1830;49.000;12.074;2022-11-18T07:01:24;7.10;99.90
3628;DHT22;1830;49.000;12.074;2022-11-18T07:03:52;7.10;99.90
3628;DHT22;1830;49.000;12.074;2022-11-18T07:06:20;7.10;99.90
3628;DHT22;1830;49.000;12.074;2022-11-18T07:08:48;7.10;99.90
3628;DHT22;1830;49.000;12.074;2022-11-18T07:11:17;7.00;99.90
3628;DHT22;1830;49.000;12.074;2022-11-18T07:13:45;7.00;99.90
3628;DHT22;1830;49.000;12.074;2022-11-18T07:16:13;7.00;99.90
3628;DHT22;1830;49.000;12.074;2022-11-18T07:18:43;7.10;99.90
3628;DHT22;1830;49.000;12.074;2022-11-18T07:21:11;7.10;99.90
3628;DHT22;1830;49.000;12.074;2022-11-18T07:23:38;7.10;99.90
3628;DHT22;1830;49.000;12.074;2022-11-18T07:26:05;7.10;99.90
3628;DHT22;1830;49.000;12.074;2022-11-18T07:28:33;7.10;99.90
3628;DHT22;1830;49.000;12.074;2022-11-18T07:31:01;7.10;99.90
3628;DHT22;1830;49.000;12.074;2022-11-18T07:33:29;7.20;99.90
3628;DHT22;1830;49.000;12.074;2022-11-18T07:36:00;7.20;99.90
3628;DHT22;1830;49.000;12.074;2022-11-18T07:38:27;7.20;99.90
3628;DHT22;1830;49.000;12.074;2022-11-18T07:40:55;7.20;99.90
3628;DHT22;1830;49.000;12.074;2022-11-18T07:43:22;7.30;99.90
3628;DHT22;1830;49.000;12.074;2022-11-18T07:45:48;7.40;99.90
3628;DHT22;1830;49.000;12.074;2022-11-18T07:48:15;7.40;99.90
3628;DHT22;1830;49.000;12.074;2022-11-18T07:50:42;7.50;99.90
3628;DHT22;1830;49.000;12.074;2022-11-18T07:53:10;7.40;99.90
3628;DHT22;1830;49.000;12.074;2022-11-18T07:55:37;7.50;99.90
3628;DHT22;1830;49.000;12.074;2022-11-18T07:58:04;7.50;99.90
3628;DHT22;1830;49.000;12.074;2022-11-18T08:00:31;7.50;99.90
3628;DHT22;1830;49.000;12.074;2022-11-18T08:02:57;7.60;99.90
3628;DHT22;1830;49.000;12.074;2022-11-18T08:05:24;7.60;99.90
3628;DHT22;1830;49.000;12.074;2022-11-18T08:07:51;7.60;99.90
3628;DHT22;1830;49.000;12.074;2022-11-18T08:10:19;7.60;99.90
3628;DHT22;1830;49.000;12.074;2022-11-18T08:12:46;7.60;99.90
3628;DHT22;1830;49.000;12.074;2022-11-18T08:15:13;7.70;99.90
3628;DHT22;1830;49.000;12.074;2022-11-18T08:17:40;7.70;99.90
3628;DHT22;1830;49.000;12.074;2022-11-18T08:20:07;7.70;99.90
3628;DHT22;1830;49.000;12.074;2022-11-18T08:22:34;7.80;99.90
3628;DHT22;1830;49.000;12.074;2022-11-18T08:25:01;7.80;99.90
3628;DHT22;1830;49.000;12.074;2022-11-18T08:27:30;7.80;99.90
3628;DHT22;1830;49.000;12.074;2022-11-18T08:29:57;7.80;99.90
3628;DHT22;1830;49.000;12.074;2022-11-18T08:32:24;7.80;99.90
3628;DHT22;1830;49.000;12.074;2022-11-18T08:34:51;7.70;99.90
3628;DHT22;1830;49.000;12.074;2022-11-18T08:37:17;7.50;99.90
3628;DHT22;1830;49.000;12.074;2022-11-18T08:39:44;7.50;99.90
3628;DHT22;1830;49.000;12.074;2022-11-18T08:42:11;7.50;99.90
3628;DHT22;1830;49.000;12.074;2022-11-18T08:44:39;7.40;99.90
3628;DHT22;1830;49.000;12.074;2022-11-18T08:47:06;7.40;99.90
3628;DHT22;1830;49.000;12.074;2022-11-18T08:49:33;7.40;99.90
3628;DHT22;1830;49.000;12.074;2022-11-18T08:52:00;7.50;99.90
3628;DHT22;1830;49.000;12.074;2022-11-18T08:54:26;7.60;99.90
3628;DHT22;1830;49.000;12.074;2022-11-18T08:56:53;7.60;99.90
3628;DHT22;1830;49.000;12.074;2022-11-18T08:59:20;7.60;99.90
3628;DHT22;1830;49.000;12.074;2022-11-18T09:01:48;7.60;99.90
3628;DHT22;1830;49.000;12.074;2022-11-18T09:04:15;7.60;99.90
3628;DHT22;1830;49.000;12.074;2022-11-18T09:06:42;7.50;99.90
3628;DHT22;1830;49.000;12.074;2022-11-18T09:09:09;7.50;99.90
3628;DHT22;1830;49.000;12.074;2022-11-18T09:11:37;7.60;99.90
3628;DHT22;1830;49.000;12.074;2022-11-18T09:14:05;7.60;99.90
3628;DHT22;1830;49.000;12.074;2022-11-18T09:16:33;7.70;99.90
3628;DHT22;1830;49.000;12.074;2022-11-18T09:19:02;7.70;99.90
3628;DHT22;1830;49.000;12.074;2022-11-18T09:21:29;7.70;99.90
3628;DHT22;1830;49.000;12.074;2022-11-18T09:23:56;7.70;99.90
3628;DHT22;1830;49.000;12.074;2022-11-18T09:26:23;7.70;99.90
3628;DHT22;1830;49.000;12.074;2022-11-18T09:28:52;7.70;99.90
3628;DHT22;1830;49.000;12.074;2022-11-18T09:31:20;7.70;99.90
3628;DHT22;1830;49.000;12.074;2022-11-18T09:33:46;7.70;99.90
3628;DHT22;1830;49.000;12.074;2022-11-18T09:36:16;7.70;99.90
3628;DHT22;1830;49.000;12.074;2022-11-18T09:38:43;7.70;99.90
3628;DHT22;1830;49.000;12.074;2022-11-18T09:41:31;7.80;99.90
3628;DHT22;1830;49.000;12.074;2022-11-18T09:44:12;7.70;99.90
3628;DHT22;1830;49.000;12.074;2022-11-18T09:46:53;7.80;99.90
3628;DHT22;1830;49.000;12.074;2022-11-18T09:49:26;7.80;99.90
3628;DHT22;1830;49.000;12.074;2022-11-18T09:51:57;7.90;99.90
3628;DHT22;1830;49.000;12.074;2022-11-18T09:54:29;7.80;99.90
3628;DHT22;1830;49.000;12.074;2022-11-18T09:56:57;7.80;99.90
3628;DHT22;1830;49.000;12.074;2022-11-18T09:59:27;7.80;99.90
3628;DHT22;1830;49.000;12.074;2022-11-18T10:02:23;7.90;99.90
3628;DHT22;1830;49.000;12.074;2022-11-18T10:04:53;7.80;99.90
3628;DHT22;1830;49.000;12.074;2022-11-18T10:07:31;7.80;99.90
3628;DHT22;1830;49.000;12.074;2022-11-18T10:10:02;7.80;99.90
3628;DHT22;1830;49.000;12.074;2022-11-18T10:12:37;7.70;99.90
3628;DHT22;1830;49.000;12.074;2022-11-18T10:15:15;7.60;99.90
3628;DHT22;1830;49.000;12.074;2022-11-18T10:17:52;7.70;99.90
3628;DHT22;1830;49.000;12.074;2022-11-18T10:20:30;7.60;99.90
3628;DHT22;1830;49.000;12.074;2022-11-18T10:23:04;7.70;99.90
3628;DHT22;1830;49.000;12.074;2022-11-18T10:25:33;7.60;99.90
3628;DHT22;1830;49.000;12.074;2022-11-18T10:28:14;7.50;99.90
3628;DHT22;1830;49.000;12.074;2022-11-18T10:30:41;7.50;99.90
3628;DHT22;1830;49.000;12.074;2022-11-18T10:33:22;7.60;99.90
3628;DHT22;1830;49.000;12.074;2022-11-18T10:35:51;7.50;99.90
3628;DHT22;1830;49.000;12.074;2022-11-18T10:38:34;7.50;99.90
3628;DHT22;1830;49.000;12.074;2022-11-18T10:41:03;7.50;99.90
3628;DHT22;1830;49.000;12.074;2022-11-18T10:43:45;7.40;99.90
3628;DHT22;1830;49.000;12.074;2022-11-18T10:46:21;7.30;99.90
3628;DHT22;1830;49.000;12.074;2022-11-18T10:48:50;7.30;99.90
3628;DHT22;1830;49.000;12.074;2022-11-18T10:51:33;7.30;99.90
3628;DHT22;1830;49.000;12.074;2022-11-18T10:54:08;7.30;99.90
3628;DHT22;1830;49.000;12.074;2022-11-18T10:56:44;7.30;99.90
3628;DHT22;1830;49.000;12.074;2022-11-18T10:59:20;7.30;99.90
3628;DHT22;1830;49.000;12.074;2022-11-18T11:02:00;7.40;99.90
3628;DHT22;1830;49.000;12.074;2022-11-18T11:04:29;7.40;99.90
3628;DHT22;1830;49.000;12.074;2022-11-18T11:06:56;7.30;99.90
3628;DHT22;1830;49.000;12.074;2022-11-18T11:09:28;7.30;99.90
3628;DHT22;1830;49.000;12.074;2022-11-18T11:11:59;7.30;99.90
3628;DHT22;1830;49.000;12.074;2022-11-18T11:14:30;7.20;99.90
3628;DHT22;1830;49.000;12.074;2022-11-18T11:17:06;7.30;99.90
3628;DHT22;1830;49.000;12.074;2022-11-18T11:19:46;7.20;99.90
3628;DHT22;1830;49.000;12.074;2022-11-18T11:22:15;7.20;99.90
3628;DHT22;1830;49.000;12.074;2022-11-18T11:24:44;7.20;99.90
3628;DHT22;1830;49.000;12.074;2022-11-18T11:27:28;7.30;99.90
3628;DHT22;1830;49.000;12.074;2022-11-18T11:30:09;7.40;99.90
3628;DHT22;1830;49.000;12.074;2022-11-18T11:32:53;7.30;99.90
3628;DHT22;1830;49.000;12.074;2022-11-18T11:35:26;7.20;99.90
3628;DHT22;1830;49.000;12.074;2022-11-18T11:37:57;7.20;99.90
3628;DHT22;1830;49.000;12.074;2022-11-18T11:40:31;7.10;99.90
3628;DHT22;1830;49.000;12.074;2022-11-18T11:43:10;7.10;99.90
3628;DHT22;1830;49.000;12.074;2022-11-18T11:45:50;7.20;99.90
3628;DHT22;1830;49.000;12.074;2022-11-18T11:48:33;7.20;99.90
3628;DHT22;1830;49.000;12.074;2022-11-18T11:51:12;7.30;99.90
3628;DHT22;1830;49.000;12.074;2022-11-18T11:53:58;7.20;99.90
3628;DHT22;1830;49.000;12.074;2022-11-18T11:56:32;7.30;99.90
3628;DHT22;1830;49.000;12.074;2022-11-18T11:59:17;7.30;99.90
3628;DHT22;1830;49.000;12.074;2022-11-18T12:01:58;7.10;99.90
3628;DHT22;1830;49.000;12.074;2022-11-18T12:04:40;7.20;99.90
3628;DHT22;1830;49.000;12.074;2022-11-18T12:07:14;7.20;99.90
3628;DHT22;1830;49.000;12.074;2022-11-18T12:10:01;7.30;99.90
3628;DHT22;1830;49.000;12.074;2022-11-18T12:12:36;7.20;99.90
3628;DHT22;1830;49.000;12.074;2022-11-18T12:15:14;7.10;99.90
3628;DHT22;1830;49.000;12.074;2022-11-18T12:17:49;7.10;99.90
3628;DHT22;1830;49.000;12.074;2022-11-18T12:20:35;7.10;99.90
3628;DHT22;1830;49.000;12.074;2022-11-18T12:23:16;7.20;99.90
3628;DHT22;1830;49.000;12.074;2022-11-18T12:25:51;7.20;99.90
3628;DHT22;1830;49.000;12.074;2022-11-18T12:28:28;7.20;99.90
3628;DHT22;1830;49.000;12.074;2022-11-18T12:34:05;7.20;99.90
3628;DHT22;1830;49.000;12.074;2022-11-18T12:36:33;7.20;99.90
3628;DHT22;1830;49.000;12.074;2022-11-18T12:42:01;7.20;99.90
3628;DHT22;1830;49.000;12.074;2022-11-18T12:44:48;7.10;99.90
3628;DHT22;1830;49.000;12.074;2022-11-18T12:47:16;7.20;99.90
3628;DHT22;1830;49.000;12.074;2022-11-18T12:50:07;7.20;99.90
3628;DHT22;1830;49.000;12.074;2022-11-18T12:52:48;7.20;99.90
3628;DHT22;1830;49.000;12.074;2022-11-18T12:55:20;7.20;99.90
3628;DHT22;1830;49.000;12.074;2022-11-18T12:57:48;7.20;99.90
3628;DHT22;1830;49.000;12.074;2022-11-18T13:00:26;7.10;99.90
3628;DHT22;1830;49.000;12.074;2022-11-18T13:02:55;7.10;99.90
3628;DHT22;1830;49.000;12.074;2022-11-18T13:05:24;7.10;99.90
3628;DHT22;1830;49.000;12.074;2022-11-18T13:07:55;7.10;99.90
3628;DHT22;1830;49.000;12.074;2022-11-18T13:10:46;7.10;99.90
3628;DHT22;1830;49.000;12.074;2022-11-18T13:13:24;7.10;99.90
3628;DHT22;1830;49.000;12.074;2022-11-18T13:15:53;7.10;99.90
3628;DHT22;1830;49.000;12.074;2022-11-18T13:18:48;7.10;99.90
3628;DHT22;1830;49.000;12.074;2022-11-18T13:21:23;7.10;99.90
3628;DHT22;1830;49.000;12.074;2022-11-18T13:24:11;7.00;99.90
3628;DHT22;1830;49.000;12.074;2022-11-18T13:26:39;7.00;99.90
3628;DHT22;1830;49.000;12.074;2022-11-18T13:29:27;7.10;99.90
3628;DHT22;1830;49.000;12.074;2022-11-18T13:32:05;7.10;99.90
3628;DHT22;1830;49.000;12.074;2022-11-18T13:34:44;7.10;99.90
3628;DHT22;1830;49.000;12.074;2022-11-18T13:37:16;7.00;99.90
3628;DHT22;1830;49.000;12.074;2022-11-18T13:39:44;7.00;99.90
3628;DHT22;1830;49.000;12.074;2022-11-18T13:42:16;7.10;99.90
3628;DHT22;1830;49.000;12.074;2022-11-18T13:44:44;7.00;99.90
3628;DHT22;1830;49.000;12.074;2022-11-18T13:47:26;7.10;99.90
3628;DHT22;1830;49.000;12.074;2022-11-18T13:50:02;7.10;99.90
3628;DHT22;1830;49.000;12.074;2022-11-18T13:52:33;7.10;99.90
3628;DHT22;1830;49.000;12.074;2022-11-18T13:55:05;7.10;99.90
3628;DHT22;1830;49.000;12.074;2022-11-18T13:57:33;7.10;99.90
3628;DHT22;1830;49.000;12.074;2022-11-18T14:00:05;7.20;99.90
3628;DHT22;1830;49.000;12.074;2022-11-18T14:02:38;7.20;99.90
3628;DHT22;1830;49.000;12.074;2022-11-18T14:05:17;7.20;99.90
3628;DHT22;1830;49.000;12.074;2022-11-18T14:07:55;7.10;99.90
3628;DHT22;1830;49.000;12.074;2022-11-18T14:10:29;7.20;99.90
3628;DHT22;1830;49.000;12.074;2022-11-18T14:12:57;7.20;99.90
3628;DHT22;1830;49.000;12.074;2022-11-18T14:15:33;7.20;99.90
3628;DHT22;1830;49.000;12.074;2022-11-18T14:18:02;7.20;99.90
3628;DHT22;1830;49.000;12.074;2022-11-18T14:20:30;7.20;99.90
3628;DHT22;1830;49.000;12.074;2022-11-18T14:22:58;7.10;99.90
3628;DHT22;1830;49.000;12.074;2022-11-18T14:25:28;7.20;99.90
3628;DHT22;1830;49.000;12.074;2022-11-18T14:27:56;7.10;99.90
3628;DHT22;1830;49.000;12.074;2022-11-18T14:30:36;7.10;99.90
3628;DHT22;1830;49.000;12.074;2022-11-18T14:33:10;7.10;99.90
3628;DHT22;1830;49.000;12.074;2022-11-18T14:35:38;7.30;99.90
3628;DHT22;1830;49.000;12.074;2022-11-18T14:38:12;7.30;99.90
3628;DHT22;1830;49.000;12.074;2022-11-18T14:40:39;7.20;99.90
3628;DHT22;1830;49.000;12.074;2022-11-18T14:43:06;7.20;99.90
3628;DHT22;1830;49.000;12.074;2022-11-18T14:45:35;7.40;99.90
3628;DHT22;1830;49.000;12.074;2022-11-18T14:48:03;7.40;99.90
3628;DHT22;1830;49.000;12.074;2022-11-18T14:50:31;7.30;99.90
3628;DHT22;1830;49.000;12.074;2022-11-18T14:52:58;7.20;99.90
3628;DHT22;1830;49.000;12.074;2022-11-18T14:55:25;7.20;99.90
3628;DHT22;1830;49.000;12.074;2022-11-18T14:57:51;7.20;99.90
3628;DHT22;1830;49.000;12.074;2022-11-18T15:00:19;7.20;99.90
3628;DHT22;1830;49.000;12.074;2022-11-18T15:02:46;7.30;99.90
3628;DHT22;1830;49.000;12.074;2022-11-18T15:05:13;7.30;99.90
3628;DHT22;1830;49.000;12.074;2022-11-18T15:07:41;7.40;99.90
3628;DHT22;1830;49.000;12.074;2022-11-18T15:10:11;7.40;99.90
3628;DHT22;1830;49.000;12.074;2022-11-18T15:12:39;7.30;99.90
3628;DHT22;1830;49.000;12.074;2022-11-18T15:15:06;7.30;99.90
3628;DHT22;1830;49.000;12.074;2022-11-18T15:17:33;7.40;99.90
3628;DHT22;1830;49.000;12.074;2022-11-18T15:20:00;7.40;99.90
3628;DHT22;1830;49.000;12.074;2022-11-18T15:22:28;7.40;99.90
3628;DHT22;1830;49.000;12.074;2022-11-18T15:24:56;7.50;99.90
3628;DHT22;1830;49.000;12.074;2022-11-18T15:27:23;7.40;99.90
3628;DHT22;1830;49.000;12.074;2022-11-18T15:29:50;7.30;99.90
3628;DHT22;1830;49.000;12.074;2022-11-18T15:32:16;7.30;99.90
3628;DHT22;1830;49.000;12.074;2022-11-18T15:34:43;7.30;99.90
3628;DHT22;1830;49.000;12.074;2022-11-18T15:37:11;7.20;99.90
3628;DHT22;1830;49.000;12.074;2022-11-18T15:39:38;7.30;99.90
3628;DHT22;1830;49.000;12.074;2022-11-18T15:42:06;7.20;99.90
3628;DHT22;1830;49.000;12.074;2022-11-18T15:44:33;7.20;99.90
3628;DHT22;1830;49.000;12.074;2022-11-18T15:47:00;7.20;99.90
3628;DHT22;1830;49.000;12.074;2022-11-18T15:49:27;7.20;99.90
3628;DHT22;1830;49.000;12.074;2022-11-18T15:51:54;7.20;99.90
3628;DHT22;1830;49.000;12.074;2022-11-18T15:54:20;7.20;99.90
3628;DHT22;1830;49.000;12.074;2022-11-18T15:56:47;7.30;99.90
3628;DHT22;1830;49.000;12.074;2022-11-18T15:59:15;7.30;99.90
3628;DHT22;1830;49.000;12.074;2022-11-18T16:01:43;7.30;99.90
3628;DHT22;1830;49.000;12.074;2022-11-18T16:04:13;7.10;99.90
3628;DHT22;1830;49.000;12.074;2022-11-18T16:06:40;7.20;99.90
3628;DHT22;1830;49.000;12.074;2022-11-18T16:09:09;7.10;99.90
3628;DHT22;1830;49.000;12.074;2022-11-18T16:11:36;7.30;99.90
3628;DHT22;1830;49.000;12.074;2022-11-18T16:14:22;7.30;99.90
3628;DHT22;1830;49.000;12.074;2022-11-18T16:16:52;7.40;99.90
3628;DHT22;1830;49.000;12.074;2022-11-18T16:19:22;7.30;99.90
3628;DHT22;1830;49.000;12.074;2022-11-18T16:21:51;7.40;99.90
3628;DHT22;1830;49.000;12.074;2022-11-18T16:24:20;7.50;99.90
3628;DHT22;1830;49.000;12.074;2022-11-18T16:26:47;7.40;99.90
3628;DHT22;1830;49.000;12.074;2022-11-18T16:29:15;7.40;99.90
3628;DHT22;1830;49.000;12.074;2022-11-18T16:31:44;7.40;99.90
3628;DHT22;1830;49.000;12.074;2022-11-18T16:34:16;7.40;99.90